Terminal Aerodrome Forecast
Issued by NWS Brownsville, TX

Current Version | Previous Version | Text Only | Print | Product List | Glossary On
Versions: 1 2 3 4 5 6 7 8 9 10 11 12 13 14 15 16 17 18 19 20 21 22 23 24 25 26 27
913
FTUS44 KBRO 240522
TAFHRL
TAF
KHRL 240522Z 2406/2506 05006KT P6SM -RA BKN100
     FM241100 01004KT P6SM VCSH OVC050
     FM241500 36008KT P6SM SCT040 OVC070=

USA.gov is the U.S. government's official web portal to all federal, state and local government web resources and services.